createdAt,value
2018-03-16T00:00:34.872Z,0.00
2018-03-16T00:01:34.893Z,0.00
2018-03-16T00:02:34.912Z,0.00
2018-03-16T00:03:34.933Z,0.00
2018-03-16T00:04:34.948Z,0.00
2018-03-16T00:05:34.973Z,0.00
2018-03-16T00:06:34.991Z,0.00
2018-03-16T00:07:35.005Z,0.00
2018-03-16T00:08:35.043Z,0.00
2018-03-16T00:09:35.114Z,0.00
2018-03-16T00:10:35.062Z,0.00
2018-03-16T00:11:35.081Z,0.00
2018-03-16T00:12:35.098Z,0.00
2018-03-16T00:13:35.119Z,0.00
2018-03-16T00:14:35.134Z,0.00
2018-03-16T00:15:35.153Z,0.00
2018-03-16T00:16:35.171Z,0.00
2018-03-16T00:17:35.205Z,0.00
2018-03-16T00:18:35.209Z,0.00
2018-03-16T00:19:35.232Z,0.00
2018-03-16T00:20:35.250Z,0.00
2018-03-16T00:21:35.267Z,0.00
2018-03-16T00:22:35.295Z,0.00
2018-03-16T00:23:35.304Z,0.00
2018-03-16T00:24:35.322Z,0.00
2018-03-16T00:25:35.358Z,0.00
2018-03-16T00:26:35.365Z,0.00
2018-03-16T00:27:35.386Z,0.00
2018-03-16T00:28:35.408Z,0.00
2018-03-16T00:29:35.416Z,0.00
2018-03-16T00:30:35.441Z,0.00
2018-03-16T00:31:35.454Z,0.00
2018-03-16T00:32:35.513Z,0.00
2018-03-16T00:33:35.495Z,0.00
2018-03-16T00:34:35.554Z,0.00
2018-03-16T00:35:35.531Z,0.00
2018-03-16T00:36:35.560Z,0.00
2018-03-16T00:37:35.574Z,0.00
2018-03-16T00:38:35.585Z,0.00
2018-03-16T00:39:35.608Z,0.00
2018-03-16T00:40:35.645Z,0.00
2018-03-16T00:41:35.654Z,0.00
2018-03-16T00:42:35.658Z,0.00
2018-03-16T00:43:35.676Z,0.00
2018-03-16T00:44:35.700Z,0.00
2018-03-16T00:45:35.718Z,0.00
2018-03-16T00:46:35.767Z,0.00
2018-03-16T00:47:35.760Z,0.00
2018-03-16T00:48:35.781Z,0.00
2018-03-16T00:49:35.792Z,0.00
2018-03-16T00:50:35.813Z,0.00
2018-03-16T00:51:35.830Z,0.00
2018-03-16T00:52:35.849Z,0.00
2018-03-16T00:53:35.864Z,0.00
2018-03-16T00:54:35.886Z,0.00
2018-03-16T00:55:35.909Z,0.00
2018-03-16T00:56:35.926Z,0.00
2018-03-16T00:57:35.941Z,0.00
2018-03-16T00:58:35.956Z,0.00
2018-03-16T00:59:35.979Z,0.00
2018-03-16T01:00:35.995Z,0.00
2018-03-16T01:01:36.018Z,0.00
2018-03-16T01:02:36.039Z,0.00
2018-03-16T01:03:36.053Z,0.00
2018-03-16T01:04:36.073Z,0.00
2018-03-16T01:05:36.091Z,0.00
2018-03-16T01:06:36.112Z,0.00
2018-03-16T01:07:36.137Z,0.00
2018-03-16T01:08:36.147Z,0.00
2018-03-16T01:09:36.164Z,0.00
2018-03-16T01:10:36.194Z,0.00
2018-03-16T01:11:36.207Z,0.00
2018-03-16T01:12:36.219Z,0.00
2018-03-16T01:13:36.246Z,0.00
2018-03-16T01:14:36.258Z,0.00
2018-03-16T01:15:36.279Z,0.00
2018-03-16T01:16:36.297Z,0.00
2018-03-16T01:17:36.316Z,0.00
2018-03-16T01:18:36.332Z,0.00
2018-03-16T01:19:36.352Z,0.00
2018-03-16T01:20:36.373Z,0.00
2018-03-16T01:21:36.388Z,0.00
2018-03-16T01:22:36.416Z,0.00
2018-03-16T01:23:36.434Z,0.00
2018-03-16T01:24:36.449Z,0.00
2018-03-16T01:25:36.466Z,0.00
2018-03-16T01:26:36.488Z,0.00
2018-03-16T01:27:36.499Z,0.00
2018-03-16T01:28:36.524Z,0.00
2018-03-16T01:29:36.564Z,0.00
2018-03-16T01:30:36.558Z,0.00
2018-03-16T01:31:36.576Z,0.00
2018-03-16T01:32:36.592Z,0.00
2018-03-16T01:33:36.614Z,0.00
2018-03-16T01:34:36.633Z,0.00
2018-03-16T01:35:36.663Z,0.00
2018-03-16T01:36:36.680Z,0.00
2018-03-16T01:37:36.689Z,0.00
2018-03-16T01:38:36.706Z,0.00
2018-03-16T01:39:36.724Z,0.00
2018-03-16T01:40:36.753Z,0.00
2018-03-16T01:41:36.769Z,0.00
2018-03-16T01:42:36.781Z,0.00
2018-03-16T01:43:36.809Z,0.00
2018-03-16T01:44:36.817Z,0.00
2018-03-16T01:45:36.840Z,0.00
2018-03-16T01:46:36.854Z,0.00
2018-03-16T01:47:36.887Z,0.00
2018-03-16T01:48:36.894Z,0.00
2018-03-16T01:49:36.911Z,0.00
2018-03-16T01:50:36.931Z,0.00
2018-03-16T01:51:36.950Z,0.00
2018-03-16T01:52:37.013Z,0.00
2018-03-16T01:53:36.995Z,0.00
2018-03-16T01:54:37.015Z,0.00
2018-03-16T01:55:37.029Z,0.00
2018-03-16T01:56:37.069Z,0.00
2018-03-16T01:57:37.085Z,0.00
2018-03-16T01:58:37.081Z,0.00
2018-03-16T01:59:37.100Z,0.00
2018-03-16T02:00:37.119Z,0.00
2018-03-16T02:01:37.137Z,0.00
2018-03-16T02:02:37.159Z,0.00
2018-03-16T02:03:37.173Z,0.00
2018-03-16T02:04:37.200Z,0.00
2018-03-16T02:05:37.211Z,0.00
2018-03-16T02:06:37.235Z,0.00
2018-03-16T02:07:37.249Z,0.00
2018-03-16T02:08:37.271Z,0.00
2018-03-16T02:09:37.291Z,0.00
2018-03-16T02:10:37.307Z,0.00
2018-03-16T02:11:37.328Z,0.00
2018-03-16T02:12:37.411Z,0.00
2018-03-16T02:13:37.366Z,0.00
2018-03-16T02:14:37.379Z,0.00
2018-03-16T02:15:37.405Z,0.00
2018-03-16T02:16:37.418Z,0.00
2018-03-16T02:17:37.443Z,0.00
2018-03-16T02:18:37.454Z,0.00
2018-03-16T02:19:37.474Z,0.00
2018-03-16T02:20:37.491Z,0.00
2018-03-16T02:21:37.511Z,0.00
2018-03-16T02:22:37.528Z,0.00
2018-03-16T02:23:37.556Z,0.00
2018-03-16T02:24:37.568Z,0.00
2018-03-16T02:25:37.588Z,0.00
2018-03-16T02:26:37.606Z,0.00
2018-03-16T02:27:37.624Z,0.00
2018-03-16T02:28:37.641Z,0.00
2018-03-16T02:29:37.662Z,0.00
2018-03-16T02:30:37.679Z,0.00
2018-03-16T02:31:37.702Z,0.00
2018-03-16T02:32:37.718Z,0.00
2018-03-16T02:33:37.738Z,0.00
2018-03-16T02:34:37.755Z,0.00
2018-03-16T02:35:37.773Z,0.00
2018-03-16T02:36:37.786Z,0.00
2018-03-16T02:37:37.813Z,0.00
2018-03-16T02:38:37.825Z,0.00
2018-03-16T02:39:37.844Z,0.00
2018-03-16T02:40:37.870Z,0.00
2018-03-16T02:41:37.893Z,0.00
2018-03-16T02:42:37.905Z,0.00
2018-03-16T02:43:37.918Z,0.00
2018-03-16T02:44:37.935Z,0.00
2018-03-16T02:45:37.961Z,0.00
2018-03-16T02:46:37.975Z,0.00
2018-03-16T02:47:37.992Z,0.00
2018-03-16T02:48:38.016Z,0.00
2018-03-16T02:49:38.031Z,0.00
2018-03-16T02:50:38.050Z,0.00
2018-03-16T02:51:38.074Z,0.00
2018-03-16T02:52:38.089Z,0.00
2018-03-16T02:53:38.112Z,0.00
2018-03-16T02:54:38.124Z,0.00
2018-03-16T02:55:38.139Z,0.00
2018-03-16T02:56:38.160Z,0.00
2018-03-16T02:57:38.179Z,0.00
2018-03-16T02:58:38.198Z,0.00
2018-03-16T02:59:38.218Z,0.00
2018-03-16T03:00:38.253Z,0.00
2018-03-16T03:01:38.260Z,0.00
2018-03-16T03:02:38.269Z,0.00
2018-03-16T03:03:38.308Z,0.00
2018-03-16T03:04:38.311Z,0.00
2018-03-16T03:05:38.326Z,0.00
2018-03-16T03:06:38.348Z,0.00
2018-03-16T03:07:38.367Z,0.00
2018-03-16T03:08:38.382Z,0.00
2018-03-16T03:09:38.420Z,0.00
2018-03-16T03:10:38.423Z,0.00
2018-03-16T03:11:38.437Z,0.00
2018-03-16T03:12:38.454Z,0.00
2018-03-16T03:13:38.475Z,0.00
2018-03-16T03:14:38.501Z,0.00
2018-03-16T03:15:38.509Z,0.00
2018-03-16T03:16:38.530Z,0.00
2018-03-16T03:17:38.550Z,0.00
2018-03-16T03:18:38.566Z,0.00
2018-03-16T03:19:38.607Z,0.00
2018-03-16T03:20:38.616Z,0.00
2018-03-16T03:21:38.624Z,0.00
2018-03-16T03:22:38.657Z,0.00
2018-03-16T03:23:38.684Z,0.00
2018-03-16T03:24:38.675Z,0.00
2018-03-16T03:25:38.693Z,0.00
2018-03-16T03:26:38.712Z,0.00
2018-03-16T03:27:38.730Z,0.00
2018-03-16T03:28:38.748Z,0.00
2018-03-16T03:29:38.770Z,0.00
2018-03-16T03:30:38.792Z,0.00
2018-03-16T03:31:38.802Z,0.00
2018-03-16T03:32:38.824Z,0.00
2018-03-16T03:33:38.873Z,0.00
2018-03-16T03:34:38.867Z,0.00
2018-03-16T03:35:38.878Z,0.00
2018-03-16T03:36:38.899Z,0.00
2018-03-16T03:37:38.930Z,0.00
2018-03-16T03:38:38.941Z,0.00
2018-03-16T03:39:38.950Z,0.00
2018-03-16T03:40:38.976Z,0.00
2018-03-16T03:41:38.988Z,0.00
2018-03-16T03:42:39.011Z,0.00
2018-03-16T03:43:39.023Z,0.00
2018-03-16T03:44:39.044Z,0.00
2018-03-16T03:45:39.069Z,0.00
2018-03-16T03:46:39.085Z,0.00
2018-03-16T03:47:39.098Z,0.00
2018-03-16T03:48:39.117Z,0.00
2018-03-16T03:49:39.137Z,0.00
2018-03-16T03:50:39.155Z,0.00
2018-03-16T03:51:39.179Z,0.00
2018-03-16T03:52:39.201Z,0.00
2018-03-16T03:53:39.257Z,0.00
2018-03-16T03:54:39.337Z,0.00
2018-03-16T03:55:39.309Z,0.00
2018-03-16T03:56:39.264Z,0.00
2018-03-16T03:57:39.284Z,0.00
2018-03-16T03:58:39.320Z,0.00
2018-03-16T03:59:39.321Z,0.00
2018-03-16T04:00:39.345Z,0.00
2018-03-16T04:01:39.364Z,0.00
2018-03-16T04:02:39.373Z,0.00
2018-03-16T04:03:39.389Z,0.00
2018-03-16T04:04:39.424Z,0.00
2018-03-16T04:05:39.427Z,0.00
2018-03-16T04:06:39.454Z,0.00
2018-03-16T04:07:39.464Z,0.00
2018-03-16T04:08:39.488Z,0.00
2018-03-16T04:09:39.504Z,0.00
2018-03-16T04:10:39.520Z,0.00
2018-03-16T04:11:39.545Z,0.00
2018-03-16T04:12:39.555Z,0.00
2018-03-16T04:13:39.584Z,0.00
2018-03-16T04:14:39.603Z,0.00
2018-03-16T04:15:39.611Z,0.00
2018-03-16T04:16:39.631Z,0.00
2018-03-16T04:17:39.650Z,0.00
2018-03-16T04:18:39.669Z,0.00
2018-03-16T04:19:39.690Z,0.00
2018-03-16T04:20:39.704Z,0.00
2018-03-16T04:21:39.722Z,0.00
2018-03-16T04:22:39.747Z,0.00
2018-03-16T04:23:39.759Z,0.00
2018-03-16T04:24:39.777Z,0.00
2018-03-16T04:25:39.796Z,0.00
2018-03-16T04:26:39.812Z,0.00
2018-03-16T04:27:39.861Z,0.00
2018-03-16T04:28:39.847Z,0.00
2018-03-16T04:29:39.866Z,0.00
2018-03-16T04:30:39.895Z,0.00
2018-03-16T04:31:39.908Z,0.00
2018-03-16T04:32:39.921Z,0.00
2018-03-16T04:33:39.940Z,0.00
2018-03-16T04:34:39.958Z,0.00
2018-03-16T04:35:39.974Z,0.00
2018-03-16T04:36:39.993Z,0.00
2018-03-16T04:37:40.015Z,0.00
2018-03-16T04:38:40.050Z,0.00
2018-03-16T04:39:40.044Z,0.00
2018-03-16T04:40:40.068Z,0.00
2018-03-16T04:41:40.084Z,0.00
2018-03-16T04:42:40.109Z,0.00
2018-03-16T04:43:40.121Z,0.00
2018-03-16T04:44:40.179Z,0.00
2018-03-16T04:45:40.170Z,0.00
2018-03-16T04:46:40.176Z,0.00
2018-03-16T04:47:40.202Z,0.00
2018-03-16T04:48:40.270Z,0.00
2018-03-16T04:49:40.260Z,0.00
2018-03-16T04:50:40.299Z,0.00
2018-03-16T04:51:40.290Z,0.00
2018-03-16T04:52:40.303Z,0.00
2018-03-16T04:53:40.306Z,0.00
2018-03-16T04:54:40.321Z,0.00
2018-03-16T04:55:40.343Z,0.00
2018-03-16T04:56:40.358Z,0.00
2018-03-16T04:57:40.416Z,0.00
2018-03-16T04:58:40.416Z,0.00
2018-03-16T04:59:40.414Z,0.00
2018-03-16T05:00:40.430Z,0.00
2018-03-16T05:01:40.452Z,0.00
2018-03-16T05:02:40.468Z,0.00
2018-03-16T05:03:40.483Z,0.00
2018-03-16T05:04:40.508Z,0.00
2018-03-16T05:05:40.524Z,0.00
2018-03-16T05:06:40.545Z,0.00
2018-03-16T05:07:40.560Z,0.00
2018-03-16T05:08:40.588Z,0.00
2018-03-16T05:09:40.597Z,0.00
2018-03-16T05:10:40.619Z,0.00
2018-03-16T05:11:40.630Z,0.00
2018-03-16T05:12:40.651Z,0.00
2018-03-16T05:13:40.674Z,0.00
2018-03-16T05:14:40.687Z,0.00
2018-03-16T05:15:40.705Z,0.00
2018-03-16T05:16:40.728Z,0.00
2018-03-16T05:17:40.747Z,0.00
2018-03-16T05:18:40.763Z,0.00
2018-03-16T05:19:40.787Z,0.00
2018-03-16T05:20:40.799Z,0.00
2018-03-16T05:21:40.822Z,0.00
2018-03-16T05:22:40.836Z,0.00
2018-03-16T05:23:40.851Z,0.00
2018-03-16T05:24:40.880Z,0.00
2018-03-16T05:25:40.889Z,0.00
2018-03-16T05:26:40.912Z,4.00
2018-03-16T05:27:40.929Z,4.00
2018-03-16T05:28:40.944Z,0.00
2018-03-16T05:29:40.966Z,0.00
2018-03-16T05:30:40.984Z,4.00
2018-03-16T05:31:41.001Z,4.00
2018-03-16T05:32:41.021Z,4.00
2018-03-16T05:33:41.037Z,4.00
2018-03-16T05:34:41.054Z,8.00
2018-03-16T05:35:41.079Z,4.00
2018-03-16T05:36:41.094Z,4.00
2018-03-16T05:37:41.110Z,4.00
2018-03-16T05:38:41.131Z,4.00
2018-03-16T05:39:41.154Z,8.00
2018-03-16T05:40:41.201Z,8.00
2018-03-16T05:41:41.184Z,12.00
2018-03-16T05:42:41.213Z,12.00
2018-03-16T05:43:41.220Z,16.00
2018-03-16T05:44:41.238Z,16.00
2018-03-16T05:45:41.353Z,20.00
2018-03-16T05:46:41.327Z,24.00
2018-03-16T05:47:41.304Z,24.00
2018-03-16T05:48:41.333Z,32.00
2018-03-16T05:49:41.365Z,36.00
2018-03-16T05:50:41.352Z,36.00
2018-03-16T05:51:41.364Z,40.00
2018-03-16T05:52:41.389Z,44.00
2018-03-16T05:53:41.413Z,44.00
2018-03-16T05:54:41.420Z,40.00
2018-03-16T05:55:41.461Z,48.00
2018-03-16T05:56:41.463Z,48.00
2018-03-16T05:57:41.485Z,48.00
2018-03-16T05:58:41.498Z,52.00
2018-03-16T05:59:41.516Z,56.00
2018-03-16T06:00:41.549Z,56.00
2018-03-16T06:01:41.583Z,56.00
2018-03-16T06:02:41.574Z,56.00
2018-03-16T06:03:41.587Z,56.00
2018-03-16T06:04:41.614Z,60.00
2018-03-16T06:05:41.627Z,60.00
2018-03-16T06:06:41.648Z,68.00
2018-03-16T06:07:41.667Z,76.00
2018-03-16T06:08:41.676Z,80.00
2018-03-16T06:09:41.698Z,80.00
2018-03-16T06:10:41.718Z,84.00
2018-03-16T06:11:41.743Z,80.00
2018-03-16T06:12:41.752Z,76.00
2018-03-16T06:13:41.772Z,76.00
2018-03-16T06:14:41.798Z,76.00
2018-03-16T06:15:41.810Z,76.00
2018-03-16T06:16:41.834Z,76.00
2018-03-16T06:17:41.843Z,76.00
2018-03-16T06:18:41.859Z,76.00
2018-03-16T06:19:41.885Z,76.00
2018-03-16T06:20:41.912Z,76.00
2018-03-16T06:21:41.919Z,72.00
2018-03-16T06:22:41.934Z,68.00
2018-03-16T06:23:41.960Z,72.00
2018-03-16T06:24:41.977Z,68.00
2018-03-16T06:25:42.000Z,56.00
2018-03-16T06:26:42.013Z,52.00
2018-03-16T06:27:42.038Z,60.00
2018-03-16T06:28:42.046Z,56.00
2018-03-16T06:29:42.062Z,56.00
2018-03-16T06:30:42.081Z,60.00
2018-03-16T06:31:42.098Z,60.00
2018-03-16T06:32:42.124Z,64.00
2018-03-16T06:33:42.140Z,64.00
2018-03-16T06:34:42.165Z,60.00
2018-03-16T06:35:42.181Z,56.00
2018-03-16T06:36:42.193Z,68.00
2018-03-16T06:37:42.212Z,72.00
2018-03-16T06:38:42.302Z,84.00
2018-03-16T06:39:42.249Z,96.00
2018-03-16T06:40:42.269Z,96.00
2018-03-16T06:41:42.284Z,104.00
2018-03-16T06:42:42.338Z,112.00
2018-03-16T06:43:42.327Z,116.00
2018-03-16T06:44:42.431Z,124.00
2018-03-16T06:45:42.358Z,128.00
2018-03-16T06:46:42.376Z,128.00
2018-03-16T06:47:42.397Z,120.00
2018-03-16T06:48:42.427Z,116.00
2018-03-16T06:49:42.435Z,116.00
2018-03-16T06:50:42.444Z,116.00
2018-03-16T06:51:42.470Z,116.00
2018-03-16T06:52:42.481Z,108.00
2018-03-16T06:53:42.513Z,100.00
2018-03-16T06:54:42.522Z,96.00
2018-03-16T06:55:42.540Z,100.00
2018-03-16T06:56:42.558Z,100.00
2018-03-16T06:57:42.572Z,104.00
2018-03-16T06:58:42.597Z,104.00
2018-03-16T06:59:42.609Z,108.00
2018-03-16T07:00:42.635Z,112.00
2018-03-16T07:01:42.647Z,112.00
2018-03-16T07:02:42.670Z,120.00
2018-03-16T07:03:42.687Z,140.00
2018-03-16T07:04:42.701Z,148.00
2018-03-16T07:05:42.728Z,152.00
2018-03-16T07:06:42.739Z,152.00
2018-03-16T07:07:42.764Z,156.00
2018-03-16T07:08:42.776Z,168.00
2018-03-16T07:09:42.790Z,164.00
2018-03-16T07:10:42.808Z,164.00
2018-03-16T07:11:42.835Z,152.00
2018-03-16T07:12:42.846Z,148.00
2018-03-16T07:13:42.863Z,152.00
2018-03-16T07:14:42.886Z,144.00
2018-03-16T07:15:42.903Z,132.00
2018-03-16T07:16:42.921Z,124.00
2018-03-16T07:17:42.938Z,132.00
2018-03-16T07:18:42.958Z,148.00
2018-03-16T07:19:42.992Z,160.00
2018-03-16T07:20:42.990Z,172.00
2018-03-16T07:21:43.027Z,200.00
2018-03-16T07:22:43.026Z,228.00
2018-03-16T07:23:43.051Z,240.00
2018-03-16T07:24:43.072Z,216.00
2018-03-16T07:25:43.083Z,220.00
2018-03-16T07:26:43.106Z,216.00
2018-03-16T07:27:43.119Z,204.00
2018-03-16T07:28:43.143Z,228.00
2018-03-16T07:29:43.169Z,232.00
2018-03-16T07:30:43.180Z,220.00
2018-03-16T07:31:43.222Z,204.00
2018-03-16T07:32:43.212Z,204.00
2018-03-16T07:33:43.230Z,212.00
2018-03-16T07:34:43.241Z,232.00
2018-03-16T07:35:43.270Z,252.00
2018-03-16T07:36:43.281Z,244.00
2018-03-16T07:37:43.302Z,240.00
2018-03-16T07:38:43.312Z,228.00
2018-03-16T07:39:43.332Z,204.00
2018-03-16T07:40:43.367Z,192.00
2018-03-16T07:41:43.371Z,188.00
2018-03-16T07:42:43.384Z,184.00
2018-03-16T07:43:43.409Z,180.00
2018-03-16T07:44:43.427Z,180.00
2018-03-16T07:45:43.449Z,184.00
2018-03-16T07:46:43.455Z,200.00
2018-03-16T07:47:43.480Z,216.00
2018-03-16T07:48:43.496Z,228.00
2018-03-16T07:49:43.512Z,236.00
2018-03-16T07:50:43.526Z,240.00
2018-03-16T07:51:43.548Z,228.00
2018-03-16T07:52:43.564Z,240.00
2018-03-16T07:53:43.586Z,236.00
2018-03-16T07:54:43.599Z,240.00
2018-03-16T07:55:43.648Z,264.00
2018-03-16T07:56:43.641Z,308.00
2018-03-16T07:57:43.655Z,336.00
2018-03-16T07:58:43.673Z,332.00
2018-03-16T07:59:43.694Z,320.00
2018-03-16T08:00:43.707Z,328.00
2018-03-16T08:01:43.733Z,372.00
2018-03-16T08:02:43.746Z,384.00
2018-03-16T08:03:43.763Z,396.00
2018-03-16T08:04:43.782Z,388.00
2018-03-16T08:05:43.805Z,432.00
2018-03-16T08:06:43.823Z,496.00
2018-03-16T08:07:43.834Z,520.00
2018-03-16T08:08:43.871Z,540.00
2018-03-16T08:09:43.875Z,528.00
2018-03-16T08:10:43.887Z,536.00
2018-03-16T08:11:43.912Z,528.00
2018-03-16T08:12:43.929Z,520.00
2018-03-16T08:13:43.993Z,528.00
2018-03-16T08:14:43.969Z,516.00
2018-03-16T08:15:43.982Z,496.00
2018-03-16T08:16:43.997Z,552.00
2018-03-16T08:17:44.024Z,580.00
2018-03-16T08:18:44.046Z,596.00
2018-03-16T08:19:44.056Z,628.00
2018-03-16T08:20:44.080Z,684.00
2018-03-16T08:21:44.093Z,708.00
2018-03-16T08:22:44.114Z,712.00
2018-03-16T08:23:44.169Z,724.00
2018-03-16T08:24:44.146Z,788.00
2018-03-16T08:25:44.173Z,784.00
2018-03-16T08:26:44.187Z,748.00
2018-03-16T08:27:44.203Z,740.00
2018-03-16T08:28:44.273Z,728.00
2018-03-16T08:29:44.288Z,764.00
2018-03-16T08:30:44.260Z,784.00
2018-03-16T08:31:44.291Z,784.00
2018-03-16T08:32:44.318Z,752.00
2018-03-16T08:33:44.321Z,744.00
2018-03-16T08:34:44.339Z,708.00
2018-03-16T08:35:44.351Z,664.00
2018-03-16T08:36:44.376Z,628.00
2018-03-16T08:37:44.398Z,532.00
2018-03-16T08:38:44.407Z,464.00
2018-03-16T08:39:44.427Z,464.00
2018-03-16T08:40:44.450Z,488.00
2018-03-16T08:41:44.475Z,464.00
2018-03-16T08:42:44.482Z,420.00
2018-03-16T08:43:44.510Z,424.00
2018-03-16T08:44:44.529Z,432.00
2018-03-16T08:45:44.544Z,396.00
2018-03-16T08:46:44.564Z,416.00
2018-03-16T08:47:44.590Z,516.00
2018-03-16T08:48:44.603Z,576.00
2018-03-16T08:49:44.641Z,668.00
2018-03-16T08:50:44.660Z,692.00
2018-03-16T08:51:44.653Z,720.00
2018-03-16T08:52:44.672Z,716.00
2018-03-16T08:53:44.688Z,720.00
2018-03-16T08:54:44.710Z,736.00
2018-03-16T08:55:44.728Z,732.00
2018-03-16T08:56:44.744Z,724.00
2018-03-16T08:57:44.770Z,752.00
2018-03-16T08:58:44.799Z,776.00
2018-03-16T08:59:44.868Z,804.00
2018-03-16T09:00:44.824Z,804.00
2018-03-16T09:01:44.854Z,796.00
2018-03-16T09:02:44.866Z,788.00
2018-03-16T09:03:44.879Z,784.00
2018-03-16T09:04:44.895Z,752.00
2018-03-16T09:05:44.920Z,728.00
2018-03-16T09:06:44.937Z,668.00
2018-03-16T09:07:44.952Z,656.00
2018-03-16T09:08:44.976Z,620.00
2018-03-16T09:09:45.052Z,560.00
2018-03-16T09:10:45.014Z,528.00
2018-03-16T09:11:45.033Z,496.00
2018-03-16T09:12:45.055Z,424.00
2018-03-16T09:13:45.075Z,388.00
2018-03-16T09:14:45.092Z,360.00
2018-03-16T09:15:45.107Z,348.00
2018-03-16T09:16:45.130Z,352.00
2018-03-16T09:17:45.146Z,408.00
2018-03-16T09:18:45.168Z,444.00
2018-03-16T09:19:45.181Z,496.00
2018-03-16T09:20:45.209Z,452.00
2018-03-16T09:21:45.231Z,384.00
2018-03-16T09:22:45.239Z,360.00
2018-03-16T09:23:45.266Z,380.00
2018-03-16T09:24:45.282Z,400.00
2018-03-16T09:25:45.303Z,420.00
2018-03-16T09:26:45.316Z,376.00
2018-03-16T09:27:45.334Z,328.00
2018-03-16T09:28:45.359Z,336.00
2018-03-16T09:29:45.428Z,412.00
2018-03-16T09:30:45.390Z,348.00
2018-03-16T09:31:45.414Z,304.00
2018-03-16T09:32:45.430Z,300.00
2018-03-16T09:33:45.470Z,276.00
2018-03-16T09:34:45.494Z,260.00
2018-03-16T09:35:45.491Z,272.00
2018-03-16T09:36:45.517Z,264.00
2018-03-16T09:37:45.531Z,228.00
2018-03-16T09:38:45.544Z,224.00
2018-03-16T09:39:45.595Z,276.00
2018-03-16T09:40:45.588Z,312.00
2018-03-16T09:41:45.612Z,368.00
2018-03-16T09:42:45.617Z,428.00
2018-03-16T09:43:45.640Z,516.00
2018-03-16T09:44:45.688Z,616.00
2018-03-16T09:45:45.681Z,612.00
2018-03-16T09:46:45.697Z,556.00
2018-03-16T09:47:45.713Z,544.00
2018-03-16T09:48:45.743Z,572.00
2018-03-16T09:49:45.751Z,636.00
2018-03-16T09:50:45.771Z,636.00
2018-03-16T09:51:45.789Z,628.00
2018-03-16T09:52:45.808Z,732.00
2018-03-16T09:53:45.830Z,792.00
2018-03-16T09:54:45.848Z,752.00
2018-03-16T09:55:45.866Z,708.00
2018-03-16T09:56:45.889Z,692.00
2018-03-16T09:57:45.904Z,716.00
2018-03-16T09:58:45.926Z,720.00
2018-03-16T09:59:45.940Z,740.00
2018-03-16T10:00:45.967Z,772.00
2018-03-16T10:01:45.984Z,808.00
2018-03-16T10:02:45.998Z,768.00
2018-03-16T10:03:46.018Z,728.00
2018-03-16T10:04:46.043Z,748.00
2018-03-16T10:05:46.064Z,736.00
2018-03-16T10:06:46.080Z,736.00
2018-03-16T10:07:46.095Z,680.00
2018-03-16T10:08:46.116Z,728.00
2018-03-16T10:09:46.141Z,692.00
2018-03-16T10:10:46.161Z,664.00
2018-03-16T10:11:46.175Z,660.00
2018-03-16T10:12:46.196Z,624.00
2018-03-16T10:13:46.216Z,600.00
2018-03-16T10:14:46.239Z,620.00
2018-03-16T10:15:46.268Z,652.00
2018-03-16T10:16:46.272Z,648.00
2018-03-16T10:17:46.311Z,680.00
2018-03-16T10:18:46.317Z,708.00
2018-03-16T10:19:46.327Z,644.00
2018-03-16T10:20:46.393Z,580.00
2018-03-16T10:21:46.372Z,456.00
2018-03-16T10:22:46.450Z,436.00
2018-03-16T10:23:46.429Z,440.00
2018-03-16T10:24:46.427Z,456.00
2018-03-16T10:25:46.458Z,476.00
2018-03-16T10:26:46.477Z,508.00
2018-03-16T10:27:46.510Z,508.00
2018-03-16T10:28:46.516Z,424.00
2018-03-16T10:29:46.537Z,372.00
2018-03-16T10:30:46.551Z,368.00
2018-03-16T10:31:46.564Z,296.00
2018-03-16T10:32:46.583Z,224.00
2018-03-16T10:33:46.600Z,196.00
2018-03-16T10:34:46.632Z,224.00
2018-03-16T10:35:46.644Z,232.00
2018-03-16T10:36:46.670Z,264.00
2018-03-16T10:37:46.679Z,332.00
2018-03-16T10:38:46.704Z,348.00
2018-03-16T10:39:46.717Z,348.00
2018-03-16T10:40:46.743Z,360.00
2018-03-16T10:41:46.785Z,484.00
2018-03-16T10:42:46.787Z,684.00
2018-03-16T10:43:46.818Z,672.00
2018-03-16T10:44:46.834Z,716.00
2018-03-16T10:45:46.839Z,776.00
2018-03-16T10:46:46.866Z,732.00
2018-03-16T10:47:46.873Z,664.00
2018-03-16T10:48:46.895Z,584.00
2018-03-16T10:49:46.913Z,576.00
2018-03-16T10:50:46.928Z,560.00
2018-03-16T10:51:46.968Z,544.00
2018-03-16T10:52:46.982Z,520.00
2018-03-16T10:53:47.000Z,500.00
2018-03-16T10:54:47.033Z,520.00
2018-03-16T10:55:47.029Z,580.00
2018-03-16T10:56:47.066Z,608.00
2018-03-16T10:57:47.101Z,664.00
2018-03-16T10:58:47.131Z,716.00
2018-03-16T10:59:47.197Z,744.00
2018-03-16T11:00:47.227Z,756.00
2018-03-16T11:01:47.199Z,756.00
2018-03-16T11:02:47.176Z,740.00
2018-03-16T11:03:47.186Z,724.00
2018-03-16T11:04:47.205Z,720.00
2018-03-16T11:05:47.229Z,740.00
2018-03-16T11:06:47.244Z,760.00
2018-03-16T11:07:47.261Z,836.00
2018-03-16T11:08:47.284Z,816.00
2018-03-16T11:09:47.302Z,844.00
2018-03-16T11:10:47.320Z,852.00
2018-03-16T11:11:47.363Z,876.00
2018-03-16T11:12:47.359Z,912.00
2018-03-16T11:13:47.381Z,952.00
2018-03-16T11:14:47.396Z,976.00
2018-03-16T11:15:47.422Z,992.00
2018-03-16T11:16:47.448Z,1008.00
2018-03-16T11:17:47.460Z,988.00
2018-03-16T11:18:47.476Z,932.00
2018-03-16T11:19:47.496Z,844.00
2018-03-16T11:20:47.515Z,756.00
2018-03-16T11:21:47.537Z,704.00
2018-03-16T11:22:47.556Z,664.00
2018-03-16T11:23:47.584Z,620.00
2018-03-16T11:24:47.602Z,584.00
2018-03-16T11:25:47.672Z,568.00
2018-03-16T11:26:47.635Z,580.00
2018-03-16T11:27:47.655Z,600.00
2018-03-16T11:28:47.679Z,628.00
2018-03-16T11:29:47.697Z,672.00
2018-03-16T11:30:47.716Z,728.00
2018-03-16T11:31:47.739Z,752.00
2018-03-16T11:32:47.752Z,788.00
2018-03-16T11:33:47.776Z,848.00
2018-03-16T11:34:47.801Z,904.00
2018-03-16T11:35:47.811Z,952.00
2018-03-16T11:36:47.830Z,976.00
2018-03-16T11:37:47.889Z,980.00
2018-03-16T11:38:47.867Z,1012.00
2018-03-16T11:39:48.016Z,1072.00
2018-03-16T11:40:47.906Z,1140.00
2018-03-16T11:41:47.933Z,1200.00
2018-03-16T11:42:47.950Z,1244.00
2018-03-16T11:43:47.964Z,1240.00
2018-03-16T11:44:47.995Z,1236.00
2018-03-16T11:45:48.007Z,1300.00
2018-03-16T11:46:48.031Z,1384.00
2018-03-16T11:47:48.045Z,1460.00
2018-03-16T11:48:48.064Z,1480.00
2018-03-16T11:49:48.091Z,1528.00
2018-03-16T11:50:48.108Z,1548.00
2018-03-16T11:51:48.123Z,1596.00
2018-03-16T11:52:48.144Z,1588.00
2018-03-16T11:53:48.168Z,1600.00
2018-03-16T11:54:48.184Z,1584.00
2018-03-16T11:55:48.205Z,1616.00
2018-03-16T11:56:48.225Z,1628.00
2018-03-16T11:57:48.252Z,1620.00
2018-03-16T11:58:48.268Z,1640.00
2018-03-16T11:59:48.294Z,1636.00
2018-03-16T12:00:48.308Z,1664.00
2018-03-16T12:01:48.330Z,1604.00
2018-03-16T12:02:48.347Z,1524.00
2018-03-16T12:03:48.367Z,1432.00
2018-03-16T12:04:48.392Z,1396.00
2018-03-16T12:05:48.418Z,1380.00
2018-03-16T12:06:48.480Z,1408.00
2018-03-16T12:07:48.456Z,1328.00
2018-03-16T12:08:48.474Z,1228.00
2018-03-16T12:09:48.502Z,1140.00
2018-03-16T12:10:48.613Z,1120.00
2018-03-16T12:11:48.533Z,1148.00
2018-03-16T12:12:48.558Z,1188.00
2018-03-16T12:13:48.585Z,1220.00
2018-03-16T12:14:48.639Z,1192.00
2018-03-16T12:15:48.615Z,1160.00
2018-03-16T12:16:48.641Z,1164.00
2018-03-16T12:17:48.658Z,1152.00
2018-03-16T12:18:48.678Z,1164.00
2018-03-16T12:19:48.700Z,1180.00
2018-03-16T12:20:48.731Z,1188.00
2018-03-16T12:21:48.741Z,1288.00
2018-03-16T12:22:48.762Z,1392.00
2018-03-16T12:23:48.829Z,1472.00
2018-03-16T12:24:48.806Z,1560.00
2018-03-16T12:25:48.828Z,1636.00
2018-03-16T12:26:48.844Z,1716.00
2018-03-16T12:27:48.870Z,1776.00
2018-03-16T12:28:50.014Z,1824.00
2018-03-16T12:29:48.908Z,1832.00
2018-03-16T12:30:48.926Z,1828.00
2018-03-16T12:31:48.948Z,1776.00
2018-03-16T12:32:48.968Z,1736.00
2018-03-16T12:33:48.994Z,1620.00
2018-03-16T12:34:49.017Z,1596.00
2018-03-16T12:35:49.032Z,1588.00
2018-03-16T12:36:49.055Z,1632.00
2018-03-16T12:37:49.079Z,1444.00
2018-03-16T12:38:49.096Z,1364.00
2018-03-16T12:39:49.115Z,1296.00
2018-03-16T12:40:49.138Z,1276.00
2018-03-16T12:41:49.166Z,1364.00
2018-03-16T12:42:49.181Z,1484.00
2018-03-16T12:43:49.200Z,1628.00
2018-03-16T12:44:49.226Z,1740.00
2018-03-16T12:45:49.247Z,1672.00
2018-03-16T12:46:49.265Z,1576.00
2018-03-16T12:47:49.291Z,1616.00
2018-03-16T12:48:49.305Z,2064.00
2018-03-16T12:49:49.334Z,2428.00